Jago, Mississippi
Current Conditions -  °F | °C
As of 8:54 PM on Saturday 22 Nov 2014 (Local Time) from KMEM Reporting Station
Broken Clouds Broken Clouds  
Wind Chill: 59°   Ceiling: 25000
Heat Index: 59°   Visibility: 10mi
Dew Point: 45°   Wind: 12mph
Humidity: 60%   Direction: 160°SSE
Pressure: 30.01"   Gusts: NA
Location:  34.9498°N, 90.0305°W
Report Text: KMEM 230254Z 16010KT 10SM SCT130 BKN250 15/07 A3001 RMK AO2 SLP159 T01500072 58012 $
Loading
Personal Weather Stations






























Interactive Weather Map New forecast layout! Learn more

10-Day Weather Forecast

Advertisements
Track Severe Weather on mobile